nikon.fr alexa rank chart, nikon.fr alexa rank daily changes

nikon.fr alexa rank chart, nikon.fr alexa rank daily changes

nikon.fr
Actual rank:
221 557

RANK HISTORY

Date Rank Diff
2018/02/21 221 557 +119 360
2018/02/19 102 197 -127 550
2018/02/18 229 747 -108 422
2018/02/17 338 169 +162 163
2018/02/16 176 006 -138 266
2018/02/15 314 272 +235 563
2018/02/14 78 709 -138 002
2018/02/13 216 711 -103 747
2018/02/12 320 458 +141 135
2018/02/11 179 323 +78 550
2018/02/10 100 773 -40 651
2018/02/09 141 424 -205 496
2018/02/08 346 920 +193 991
2018/02/07 152 929 +57 294
2018/02/06 95 635 -301 187
2018/02/05 396 822 -13 259
2018/02/04 410 081 +284 733
2018/02/03 125 348 +32 463
2018/02/02 92 885 -128 967
2018/02/01 221 852 -8 667
2018/01/31 230 519 +112 219
2018/01/30 118 300 +666
2018/01/29 117 634 +2 150
2018/01/28 115 484 -2 250
2018/01/27 117 734 +286
2018/01/26 117 448 +2 220
2018/01/25 115 228 +1 242
2018/01/24 113 986 -1 710
2018/01/23 115 696 -2 104
2018/01/22 117 800 -1 866
2018/01/21 119 666 +3 096
2018/01/20 116 570 -1 350
2018/01/19 117 920 -1 430
2018/01/18 119 350 +6 865
2018/01/17 112 485 +1 672
2018/01/16 110 813 -3 408
2018/01/15 114 221 +1 414
2018/01/14 112 807 -2 716
2018/01/13 115 523 -3 107
2018/01/12 118 630 -5 144
2018/01/11 123 774 +3 067
2018/01/10 120 707 +2 079
2018/01/09 118 628 -908
2018/01/08 119 536 -1 462
2018/01/07 120 998 +1 815
2018/01/06 119 183 +1 021
2018/01/05 118 162 +91
2018/01/04 118 071 +924
2018/01/03 117 147 +4 120
2018/01/02 113 027 +252
2018/01/01 112 775 +1 629
2017/12/31 111 146 +993
2017/12/30 110 153 -297
2017/12/29 110 450 -499
2017/12/28 110 949 -1 453
2017/12/27 112 402 +322
2017/12/26 112 080 -2 854
2017/12/25 114 934 +977
2017/12/24 113 957 +1 731
2017/12/23 112 226

WIDGET FOR YOUR SITE

DOMAINS WITH THE NEAREST RANK

Domain Rank
postzone24.com 221 552
s6img.com 221 553
tomato.com.hr 221 554
superga.co.uk 221 555
library.lt 221 556
nikon.fr 221 557
riskyjatt.com 221 558
bohuslaningen.se 221 559
4newmum.com 221 560
lygte-info.dk 221 561
aerospaceweb.org 221 562

DOMAINS WITH THE NEAREST RANK BY TLD .fr

Domain Rank
association1901.fr 221 329
spiritgamer.fr 221 332
zenserv.fr 221 333
guide-de-la-defiscalisation.fr 221 355
ladmedia.fr 221 483
nikon.fr 221 557
image-heberg.fr 221 574
free-reseau.fr 221 700
dalkia.fr 221 711
lemeilleurantivirus.fr 221 717
basecdi.fr 222 169